Time;durP1;ratioP1;P1;durP2;ratioP2;P2;SDS_P1;SDS_P2;PMS_P1;PMS_P2;Temp;Humidity;BMP_temperature;BMP_pressure;BME280_temperature;BME280_humidity;BME280_pressure;Samples;Min_cycle;Max_cycle;Signal;HPM_P1;HPM_P2
2023/05/13 00:00:35;;;;;;;2.67;2.08;;;13.90;70.60;;;;;;5037313;28;20097;-62
2023/05/13 00:03:00;;;;;;;2.33;2.00;;;13.90;70.00;;;;;;5039944;28;20026;-62
2023/05/13 00:05:26;;;;;;;2.33;1.90;;;13.90;70.10;;;;;;5039939;28;20040;-63
2023/05/13 00:07:52;;;;;;;2.78;2.00;;;13.90;70.10;;;;;;5022254;28;20125;-63
2023/05/13 00:10:19;;;;;;;1.95;1.83;;;13.80;70.10;;;;;;5035292;28;20030;-63
2023/05/13 00:12:45;;;;;;;4.20;1.95;;;13.90;70.30;;;;;;5038071;28;20381;-63
2023/05/13 00:15:11;;;;;;;2.35;2.15;;;13.90;70.40;;;;;;5038675;28;20033;-63
2023/05/13 00:17:36;;;;;;;2.10;1.90;;;13.90;70.40;;;;;;5038917;28;20085;-63
2023/05/13 00:20:04;;;;;;;2.28;2.00;;;13.90;70.40;;;;;;5038189;28;20140;-62
2023/05/13 00:22:29;;;;;;;1.98;1.85;;;13.90;70.40;;;;;;5042050;28;20022;-63
2023/05/13 00:24:55;;;;;;;2.83;2.08;;;13.90;70.40;;;;;;5036081;28;20071;-62
2023/05/13 00:27:20;;;;;;;4.22;2.20;;;13.90;70.40;;;;;;5040298;28;20033;-64
2023/05/13 00:29:46;;;;;;;5.25;2.05;;;13.80;70.30;;;;;;5040210;28;20030;-63
2023/05/13 00:32:12;;;;;;;2.15;1.92;;;13.90;70.30;;;;;;5035991;28;20488;-63
2023/05/13 00:34:37;;;;;;;2.15;1.92;;;13.80;70.30;;;;;;5039974;28;20034;-63
2023/05/13 00:37:03;;;;;;;2.10;1.90;;;13.80;70.30;;;;;;5041975;28;20057;-62
2023/05/13 00:39:29;;;;;;;1.85;1.75;;;13.80;70.30;;;;;;5043494;28;20051;-62
2023/05/13 00:41:55;;;;;;;4.25;1.90;;;13.80;70.10;;;;;;5041492;28;20037;-63
2023/05/13 00:44:20;;;;;;;2.72;1.90;;;13.80;70.20;;;;;;5042816;28;20064;-62
2023/05/13 00:46:46;;;;;;;2.38;1.52;;;13.70;70.20;;;;;;5037702;28;20026;-62
2023/05/13 00:49:12;;;;;;;1.70;1.60;;;13.70;70.30;;;;;;5040438;28;20029;-62
2023/05/13 00:51:38;;;;;;;2.20;1.60;;;13.70;70.20;;;;;;5042098;28;20033;-62
2023/05/13 00:54:04;;;;;;;3.28;1.42;;;13.70;70.20;;;;;;5039015;28;20017;-62
2023/05/13 00:56:29;;;;;;;1.10;1.10;;;13.70;70.20;;;;;;5044165;28;20041;-63
2023/05/13 00:58:55;;;;;;;2.10;1.90;;;13.70;70.10;;;;;;5041836;28;20033;-63
2023/05/13 01:01:49;;;;;;;2.08;1.42;;;13.70;69.90;;;;;;5042069;28;20059;-62
2023/05/13 01:04:25;;;;;;;1.45;1.35;;;13.70;69.70;;;;;;5042620;28;20041;-64
2023/05/13 01:07:09;;;;;;;2.22;1.40;;;13.70;69.70;;;;;;5044316;28;20037;-64
2023/05/13 01:09:55;;;;;;;4.57;1.50;;;13.70;69.70;;;;;;5035499;28;20057;-63
2023/05/13 01:12:31;;;;;;;1.48;1.38;;;13.60;69.10;;;;;;4996152;28;20042;-62
2023/05/13 01:15:04;;;;;;;1.40;1.30;;;13.70;69.50;;;;;;5038012;28;20040;-63
2023/05/13 01:17:46;;;;;;;2.13;1.30;;;13.70;69.50;;;;;;5036655;28;20025;-64
2023/05/13 01:20:12;;;;;;;3.53;1.42;;;13.60;69.30;;;;;;5024761;28;20025;-63
2023/05/13 01:22:38;;;;;;;1.40;1.30;;;13.60;69.20;;;;;;5039873;28;20456;-62
2023/05/13 01:25:03;;;;;;;4.68;1.48;;;13.60;69.20;;;;;;5035286;28;20026;-63
2023/05/13 01:27:29;;;;;;;1.75;1.40;;;13.60;69.00;;;;;;5043087;28;20037;-64
2023/05/13 01:29:56;;;;;;;1.60;1.50;;;13.60;69.00;;;;;;5041245;28;20053;-63
2023/05/13 01:32:22;;;;;;;1.55;1.42;;;13.60;69.00;;;;;;5041079;28;20081;-63
2023/05/13 01:34:54;;;;;;;1.83;1.63;;;13.60;69.10;;;;;;5036205;28;20025;-62
2023/05/13 01:37:19;;;;;;;1.33;1.23;;;13.50;69.10;;;;;;5036312;28;20036;-64
2023/05/13 01:39:46;;;;;;;2.22;1.40;;;13.50;69.10;;;;;;5036293;28;20025;-62
2023/05/13 01:42:11;;;;;;;1.63;1.30;;;13.50;69.00;;;;;;5037557;28;20022;-63
2023/05/13 01:44:37;;;;;;;1.65;1.40;;;13.50;69.00;;;;;;5024827;28;20036;-62
2023/05/13 01:47:03;;;;;;;1.80;1.40;;;13.50;68.80;;;;;;5037562;28;20057;-62
2023/05/13 01:49:29;;;;;;;2.53;1.60;;;13.50;68.80;;;;;;5041682;28;20464;-62
2023/05/13 01:51:54;;;;;;;1.50;1.40;;;13.50;68.60;;;;;;5041479;28;20029;-63
2023/05/13 01:54:20;;;;;;;1.75;1.45;;;13.40;68.60;;;;;;5044648;28;20369;-63
2023/05/13 01:56:46;;;;;;;1.20;1.10;;;13.40;68.70;;;;;;5044282;28;21867;-64
2023/05/13 01:59:12;;;;;;;1.55;1.42;;;13.40;68.80;;;;;;5043527;28;20100;-62
2023/05/13 02:01:39;;;;;;;1.50;1.33;;;13.40;68.90;;;;;;5043032;28;20531;-63
2023/05/13 02:04:05;;;;;;;5.57;1.45;;;13.40;68.90;;;;;;5042140;28;20044;-62
2023/05/13 02:06:31;;;;;;;4.07;1.80;;;13.40;68.90;;;;;;5040348;28;20402;-63
2023/05/13 02:08:56;;;;;;;2.35;1.30;;;13.40;69.00;;;;;;5040961;28;20702;-62
2023/05/13 02:11:23;;;;;;;1.67;1.55;;;13.40;69.00;;;;;;5040878;28;20029;-63
2023/05/13 02:13:49;;;;;;;1.50;1.35;;;13.40;69.00;;;;;;5036857;28;20105;-63
2023/05/13 02:16:19;;;;;;;1.88;1.60;;;13.40;68.80;;;;;;5041158;28;20068;-61
2023/05/13 02:18:46;;;;;;;4.07;1.63;;;13.40;68.80;;;;;;5019157;28;20021;-63
2023/05/13 02:21:12;;;;;;;1.60;1.50;;;13.30;68.80;;;;;;5035629;28;20163;-63
2023/05/13 02:23:37;;;;;;;1.50;1.40;;;13.30;68.90;;;;;;5036012;28;20041;-62
2023/05/13 02:26:03;;;;;;;1.52;1.38;;;13.30;68.90;;;;;;5037649;28;20060;-63
2023/05/13 02:28:29;;;;;;;1.48;1.38;;;13.30;68.90;;;;;;5037850;28;20037;-62
2023/05/13 02:30:54;;;;;;;2.45;1.40;;;13.30;69.00;;;;;;5039681;28;20021;-62
2023/05/13 02:33:20;;;;;;;1.80;1.42;;;13.30;69.00;;;;;;5038016;28;20037;-64
2023/05/13 02:35:46;;;;;;;1.42;1.33;;;13.30;69.10;;;;;;5039168;28;20038;-63
2023/05/13 02:38:11;;;;;;;1.80;1.30;;;13.30;69.10;;;;;;5039838;28;20106;-63
2023/05/13 02:40:37;;;;;;;1.83;1.38;;;13.30;69.10;;;;;;5036017;28;20030;-64
2023/05/13 02:43:03;;;;;;;1.55;1.45;;;13.30;69.10;;;;;;5037626;28;20013;-61
2023/05/13 02:45:29;;;;;;;1.50;1.40;;;13.30;69.30;;;;;;5045053;28;20017;-62
2023/05/13 02:47:56;;;;;;;4.10;1.55;;;13.40;69.30;;;;;;5047043;28;20029;-63
2023/05/13 02:50:22;;;;;;;1.77;1.33;;;13.40;69.20;;;;;;5045228;28;20035;-64
2023/05/13 02:52:47;;;;;;;2.92;1.35;;;13.40;69.20;;;;;;5046453;28;21135;-62
2023/05/13 02:55:13;;;;;;;1.45;1.35;;;13.40;69.20;;;;;;5041972;28;20030;-62
2023/05/13 02:57:38;;;;;;;1.27;1.17;;;13.40;69.20;;;;;;5046709;28;20026;-63
2023/05/13 03:00:05;;;;;;;1.77;1.50;;;13.40;69.10;;;;;;5041056;28;20132;-62
2023/05/13 03:02:32;;;;;;;1.88;1.50;;;13.40;69.10;;;;;;5049992;28;20021;-62
2023/05/13 03:04:57;;;;;;;2.50;1.30;;;13.40;69.10;;;;;;5046639;28;20033;-62
2023/05/13 03:07:24;;;;;;;1.70;1.52;;;13.40;69.10;;;;;;5042071;28;20044;-64
2023/05/13 03:09:50;;;;;;;1.80;1.70;;;13.40;69.20;;;;;;5038763;28;20022;-63
2023/05/13 03:12:16;;;;;;;2.60;1.67;;;13.40;69.30;;;;;;5037909;28;20045;-63
2023/05/13 03:14:43;;;;;;;1.50;1.40;;;13.30;69.30;;;;;;5036049;28;20041;-63
2023/05/13 03:17:09;;;;;;;3.78;1.60;;;13.30;69.50;;;;;;5037022;28;20484;-63
2023/05/13 03:19:36;;;;;;;3.80;1.63;;;13.30;69.60;;;;;;5039363;28;20029;-63
2023/05/13 03:22:03;;;;;;;2.78;2.00;;;13.30;69.70;;;;;;5040180;28;20053;-62
2023/05/13 03:24:28;;;;;;;2.47;1.88;;;13.30;69.60;;;;;;5038724;28;20073;-63
2023/05/13 03:26:55;;;;;;;5.07;2.30;;;13.30;69.50;;;;;;5038215;28;20088;-61
2023/05/13 03:29:21;;;;;;;3.75;1.80;;;13.30;69.60;;;;;;5040089;28;20022;-62
2023/05/13 03:31:47;;;;;;;3.45;2.13;;;13.30;69.60;;;;;;5031348;28;20102;-62
2023/05/13 03:34:12;;;;;;;2.05;1.58;;;13.20;69.60;;;;;;5037244;28;20025;-65
2023/05/13 03:36:38;;;;;;;2.42;1.88;;;13.20;69.60;;;;;;5040203;28;20037;-64
2023/05/13 03:39:03;;;;;;;5.82;2.10;;;13.20;69.60;;;;;;5035059;28;20472;-64
2023/05/13 03:41:29;;;;;;;3.67;2.05;;;13.20;69.60;;;;;;4981869;28;20053;-64
2023/05/13 03:43:55;;;;;;;3.08;1.88;;;13.20;69.60;;;;;;5037340;28;20495;-62
2023/05/13 03:46:21;;;;;;;5.78;2.10;;;13.20;69.50;;;;;;5040084;28;20018;-62
2023/05/13 03:48:48;;;;;;;3.65;2.33;;;13.20;69.50;;;;;;5033057;28;20031;-61
2023/05/13 03:51:14;;;;;;;3.03;2.10;;;13.20;69.50;;;;;;5038319;28;20376;-63
2023/05/13 03:53:39;;;;;;;3.05;2.15;;;13.20;69.60;;;;;;5036803;28;20121;-62
2023/05/13 03:56:05;;;;;;;2.38;2.17;;;13.30;69.70;;;;;;5037540;28;20041;-64
2023/05/13 03:58:31;;;;;;;2.90;2.50;;;13.20;69.60;;;;;;5036605;28;20029;-62
2023/05/13 04:00:56;;;;;;;3.08;2.40;;;13.10;69.50;;;;;;5039877;28;20024;-61
2023/05/13 04:03:22;;;;;;;3.22;2.58;;;13.10;69.60;;;;;;5043625;28;20029;-62
2023/05/13 04:05:49;;;;;;;3.65;2.47;;;13.10;69.60;;;;;;5040633;28;20093;-64
2023/05/13 04:08:15;;;;;;;2.50;2.30;;;13.10;69.60;;;;;;5040903;28;20030;-63
2023/05/13 04:10:41;;;;;;;7.15;2.60;;;13.10;69.60;;;;;;5040592;28;20025;-62
2023/05/13 04:13:07;;;;;;;5.53;2.20;;;13.10;69.70;;;;;;5032738;28;20037;-63
2023/05/13 04:15:33;;;;;;;3.85;2.55;;;13.10;69.60;;;;;;5039791;28;20040;-63
2023/05/13 04:17:58;;;;;;;2.80;2.30;;;13.10;69.60;;;;;;5042781;28;20033;-63
2023/05/13 04:20:24;;;;;;;4.13;2.33;;;13.10;69.80;;;;;;5042962;28;20088;-62
2023/05/13 04:22:51;;;;;;;2.95;2.10;;;13.00;69.90;;;;;;5040916;28;20025;-62
2023/05/13 04:25:17;;;;;;;2.78;2.53;;;13.10;70.00;;;;;;5023294;28;20029;-62
2023/05/13 04:27:42;;;;;;;2.88;2.33;;;13.10;69.90;;;;;;5037700;28;20588;-62
2023/05/13 04:30:09;;;;;;;3.97;2.05;;;13.10;69.90;;;;;;5040728;28;20093;-62
2023/05/13 04:32:35;;;;;;;8.02;2.90;;;13.00;69.80;;;;;;5040718;28;20029;-62
2023/05/13 04:35:00;;;;;;;5.78;2.60;;;13.10;69.70;;;;;;5041165;28;20037;-63
2023/05/13 04:37:26;;;;;;;4.05;2.55;;;13.10;69.70;;;;;;5042626;28;20026;-62
2023/05/13 04:39:52;;;;;;;3.95;2.20;;;13.10;69.80;;;;;;5043839;28;20067;-62
2023/05/13 04:42:18;;;;;;;3.25;2.42;;;13.10;69.80;;;;;;5036544;28;20037;-61
2023/05/13 04:44:44;;;;;;;4.68;2.60;;;13.10;69.90;;;;;;5024691;28;20118;-63
2023/05/13 04:47:10;;;;;;;6.82;2.70;;;13.10;70.00;;;;;;5037835;28;20029;-62
2023/05/13 04:49:35;;;;;;;3.47;2.25;;;13.00;69.80;;;;;;5042197;28;20026;-63
2023/05/13 04:52:03;;;;;;;3.30;2.50;;;13.10;69.90;;;;;;5040193;28;20044;-64
2023/05/13 04:54:29;;;;;;;5.35;2.80;;;13.10;69.80;;;;;;5042491;28;20025;-62
2023/05/13 04:56:55;;;;;;;4.68;2.40;;;13.10;69.70;;;;;;5041131;28;20036;-62
2023/05/13 04:59:21;;;;;;;2.85;2.42;;;13.10;69.90;;;;;;5018753;28;20046;-63
2023/05/13 05:01:47;;;;;;;3.90;2.60;;;13.10;69.80;;;;;;5036818;28;20017;-62
2023/05/13 05:04:13;;;;;;;5.18;2.75;;;13.10;69.70;;;;;;5037907;28;20026;-63
2023/05/13 05:06:39;;;;;;;2.85;2.25;;;13.10;69.70;;;;;;5040757;28;20033;-62
2023/05/13 05:09:05;;;;;;;3.25;2.67;;;13.10;69.50;;;;;;5040989;28;20100;-62
2023/05/13 05:11:30;;;;;;;2.47;2.25;;;13.10;69.50;;;;;;5022618;28;20038;-62
2023/05/13 05:13:56;;;;;;;4.57;2.47;;;13.10;69.30;;;;;;5039932;28;20095;-63
2023/05/13 05:16:22;;;;;;;4.07;2.60;;;13.10;69.30;;;;;;5039983;28;20041;-62
2023/05/13 05:18:48;;;;;;;6.03;2.35;;;13.00;69.30;;;;;;5041665;28;20033;-62
2023/05/13 05:21:13;;;;;;;5.07;2.67;;;13.00;69.30;;;;;;5035512;28;20021;-62
2023/05/13 05:23:39;;;;;;;7.80;2.50;;;13.00;69.30;;;;;;5040712;28;20057;-62
2023/05/13 05:26:05;;;;;;;2.55;2.35;;;13.00;69.30;;;;;;5041759;28;20055;-63
2023/05/13 05:28:30;;;;;;;2.53;2.33;;;13.00;69.30;;;;;;5040886;28;20102;-63
2023/05/13 05:30:56;;;;;;;5.85;2.80;;;13.00;69.40;;;;;;5042483;28;20053;-63
2023/05/13 05:33:22;;;;;;;3.60;2.28;;;13.00;69.50;;;;;;5041997;28;20492;-64
2023/05/13 05:35:48;;;;;;;4.75;2.30;;;13.00;69.50;;;;;;5042459;28;20029;-63
2023/05/13 05:38:14;;;;;;;5.85;2.65;;;13.00;69.60;;;;;;5040630;28;20025;-62
2023/05/13 05:40:44;;;;;;;3.78;2.80;;;13.00;69.60;;;;;;5040654;28;20021;-64
2023/05/13 05:43:10;;;;;;;3.10;2.60;;;13.00;69.70;;;;;;5032477;28;20021;-64
2023/05/13 05:45:36;;;;;;;3.13;2.80;;;13.00;69.70;;;;;;5041477;28;20021;-63
2023/05/13 05:48:02;;;;;;;4.22;2.50;;;13.00;69.70;;;;;;5040183;28;20029;-63
2023/05/13 05:50:28;;;;;;;9.30;3.08;;;13.00;69.70;;;;;;5040465;28;20041;-62
2023/05/13 05:52:54;;;;;;;9.13;3.17;;;13.00;69.80;;;;;;5040372;28;20022;-64
2023/05/13 05:55:20;;;;;;;5.22;3.38;;;13.00;69.80;;;;;;5039496;28;20042;-63
2023/05/13 05:57:46;;;;;;;9.68;3.50;;;13.00;69.80;;;;;;5037828;28;20082;-63
2023/05/13 06:00:12;;;;;;;5.22;3.20;;;13.00;69.60;;;;;;5043738;28;20040;-63
2023/05/13 06:02:38;;;;;;;4.35;3.08;;;13.00;69.70;;;;;;5036379;28;20033;-65
2023/05/13 06:05:05;;;;;;;5.05;3.15;;;13.00;69.80;;;;;;5036152;28;20076;-65
2023/05/13 06:07:30;;;;;;;4.82;3.22;;;13.10;70.00;;;;;;5042339;28;20029;-65
2023/05/13 06:09:56;;;;;;;4.97;3.10;;;13.10;70.00;;;;;;5040115;28;20029;-65
2023/05/13 06:12:22;;;;;;;5.35;2.80;;;13.10;70.00;;;;;;5035837;28;20029;-66
2023/05/13 06:14:48;;;;;;;5.55;2.72;;;13.20;69.90;;;;;;5040639;28;20037;-65
2023/05/13 06:17:14;;;;;;;5.53;2.63;;;13.20;70.10;;;;;;5039695;28;20033;-65
2023/05/13 06:19:43;;;;;;;5.85;2.70;;;13.20;70.00;;;;;;5038398;28;20219;-66
2023/05/13 06:22:09;;;;;;;4.38;3.10;;;13.20;69.80;;;;;;5028496;28;20026;-65
2023/05/13 06:24:36;;;;;;;3.25;2.42;;;13.30;69.70;;;;;;5037413;28;20075;-65
2023/05/13 06:27:01;;;;;;;3.28;2.72;;;13.30;69.50;;;;;;5021268;28;20088;-65
2023/05/13 06:29:28;;;;;;;9.05;2.78;;;13.30;69.40;;;;;;5041503;28;20502;-65
2023/05/13 06:31:53;;;;;;;4.20;2.55;;;13.40;69.30;;;;;;5040376;28;20028;-64
2023/05/13 06:34:19;;;;;;;4.68;2.70;;;13.30;69.50;;;;;;5039281;28;20089;-65
2023/05/13 06:36:45;;;;;;;2.50;2.30;;;13.40;69.30;;;;;;5038646;28;20037;-65
2023/05/13 06:39:11;;;;;;;2.40;2.00;;;13.40;69.40;;;;;;5040610;28;20029;-65
2023/05/13 06:41:38;;;;;;;3.00;2.00;;;13.40;69.30;;;;;;5039233;28;20125;-65
2023/05/13 06:44:04;;;;;;;3.65;2.30;;;13.40;69.50;;;;;;5039918;28;20049;-65
2023/05/13 06:46:30;;;;;;;5.47;2.50;;;13.50;69.20;;;;;;5036312;28;20053;-65
2023/05/13 06:48:57;;;;;;;2.40;2.15;;;13.50;69.00;;;;;;5036891;28;20018;-65
2023/05/13 06:51:24;;;;;;;5.93;2.67;;;13.50;69.10;;;;;;5038540;28;20022;-65
2023/05/13 06:53:50;;;;;;;2.30;2.10;;;13.50;69.00;;;;;;5039636;28;20032;-64
2023/05/13 06:56:15;;;;;;;2.88;2.17;;;13.50;69.10;;;;;;5037902;28;20069;-66
2023/05/13 06:58:41;;;;;;;5.35;2.40;;;13.50;69.10;;;;;;5037604;28;20026;-64
2023/05/13 07:01:07;;;;;;;5.40;2.30;;;13.50;69.00;;;;;;5035318;28;20030;-65
2023/05/13 07:03:32;;;;;;;2.60;2.40;;;13.60;69.10;;;;;;5036912;28;20048;-65
2023/05/13 07:05:58;;;;;;;5.93;2.90;;;13.60;69.00;;;;;;5035488;28;20032;-64
2023/05/13 07:08:23;;;;;;;4.55;2.22;;;13.60;68.80;;;;;;5032692;28;20044;-64
2023/05/13 07:10:49;;;;;;;3.72;2.42;;;13.70;68.90;;;;;;5038688;28;20026;-65
2023/05/13 07:13:16;;;;;;;5.07;2.65;;;13.70;68.90;;;;;;5016293;28;20073;-65
2023/05/13 07:15:42;;;;;;;3.53;2.50;;;13.70;69.00;;;;;;4998855;28;20491;-65
2023/05/13 07:18:08;;;;;;;3.28;2.22;;;13.70;68.90;;;;;;5026961;28;20022;-65
2023/05/13 07:20:33;;;;;;;3.55;2.08;;;13.80;69.00;;;;;;5014213;28;20037;-65
2023/05/13 07:22:59;;;;;;;3.35;2.58;;;13.80;69.00;;;;;;5006084;28;20034;-65
2023/05/13 07:25:25;;;;;;;3.72;3.00;;;13.80;68.90;;;;;;5013510;28;20033;-66
2023/05/13 07:27:50;;;;;;;3.70;3.00;;;13.80;69.00;;;;;;5018049;28;20026;-65
2023/05/13 07:30:16;;;;;;;2.75;2.47;;;13.90;68.90;;;;;;4994486;28;20022;-65
2023/05/13 07:32:42;;;;;;;6.88;2.60;;;13.90;68.90;;;;;;5019209;28;20030;-64
2023/05/13 07:35:09;;;;;;;2.78;2.22;;;14.00;69.00;;;;;;5019872;28;20040;-65
2023/05/13 07:37:35;;;;;;;3.40;2.63;;;14.10;69.00;;;;;;5004788;28;20094;-64
2023/05/13 07:40:02;;;;;;;5.22;2.28;;;14.10;68.70;;;;;;5017801;28;20018;-65
2023/05/13 07:42:28;;;;;;;3.05;2.58;;;14.20;68.20;;;;;;5013802;28;20037;-65
2023/05/13 07:44:55;;;;;;;5.97;2.55;;;14.20;68.30;;;;;;5024566;28;20437;-65
2023/05/13 07:47:20;;;;;;;3.50;2.35;;;14.20;68.20;;;;;;5021440;28;20116;-64
2023/05/13 07:49:46;;;;;;;3.20;2.28;;;14.20;68.20;;;;;;5014017;28;20057;-65
2023/05/13 07:52:12;;;;;;;2.92;2.20;;;14.20;68.40;;;;;;5026129;28;20026;-64
2023/05/13 07:54:38;;;;;;;2.13;1.95;;;14.30;68.40;;;;;;5002134;28;20030;-65
2023/05/13 07:57:03;;;;;;;2.28;2.08;;;14.30;68.40;;;;;;5019207;28;20392;-65
2023/05/13 07:59:29;;;;;;;2.90;2.60;;;14.40;68.30;;;;;;5017526;28;20516;-65
2023/05/13 08:01:55;;;;;;;3.30;2.78;;;14.40;67.90;;;;;;5012055;28;20022;-64
2023/05/13 08:04:20;;;;;;;5.65;2.50;;;14.40;67.70;;;;;;5018684;28;20030;-65
2023/05/13 08:06:46;;;;;;;3.22;2.08;;;14.50;67.80;;;;;;5013628;28;20037;-64
2023/05/13 08:09:13;;;;;;;2.30;2.10;;;14.50;67.90;;;;;;5010894;28;20049;-64
2023/05/13 08:11:38;;;;;;;5.53;2.35;;;14.50;67.40;;;;;;5021166;28;20077;-65
2023/05/13 08:14:05;;;;;;;2.30;2.10;;;14.50;67.40;;;;;;5021249;28;20117;-64
2023/05/13 08:16:33;;;;;;;5.45;2.10;;;14.50;67.10;;;;;;5037747;28;20060;-64
2023/05/13 08:18:58;;;;;;;2.63;2.17;;;14.50;67.30;;;;;;5019184;28;20061;-66
2023/05/13 08:21:24;;;;;;;3.60;2.60;;;14.50;67.40;;;;;;5020946;28;20037;-65
2023/05/13 08:23:51;;;;;;;2.92;2.55;;;14.50;67.30;;;;;;5036711;28;20041;-65
2023/05/13 08:26:16;;;;;;;2.88;2.20;;;14.50;67.10;;;;;;5040937;28;20033;-65
2023/05/13 08:28:42;;;;;;;1.95;1.85;;;14.60;67.50;;;;;;5036906;28;20048;-65
2023/05/13 08:31:09;;;;;;;3.13;2.75;;;14.60;67.40;;;;;;5041862;28;20380;-66
2023/05/13 08:33:35;;;;;;;3.30;1.95;;;14.60;67.50;;;;;;5040237;28;20495;-65
2023/05/13 08:36:01;;;;;;;3.72;2.00;;;14.60;67.40;;;;;;5041813;28;20061;-65
2023/05/13 08:38:26;;;;;;;2.15;1.95;;;14.70;67.40;;;;;;5039474;28;20484;-66
2023/05/13 08:40:52;;;;;;;4.28;1.90;;;14.70;67.50;;;;;;4959340;28;20657;-65
2023/05/13 08:43:19;;;;;;;4.90;2.25;;;14.80;67.30;;;;;;5042082;28;20032;-66
2023/05/13 08:45:46;;;;;;;3.47;2.00;;;14.80;67.00;;;;;;5040053;28;20033;-65
2023/05/13 08:48:15;;;;;;;2.58;1.88;;;14.90;66.30;;;;;;5038330;28;20059;-66
2023/05/13 08:50:41;;;;;;;1.77;1.58;;;14.90;66.10;;;;;;5034607;28;20021;-64
2023/05/13 08:53:08;;;;;;;4.28;2.78;;;14.90;66.30;;;;;;5040198;28;20017;-65
2023/05/13 08:55:34;;;;;;;9.13;2.10;;;14.80;65.70;;;;;;5034703;28;20056;-66
2023/05/13 08:57:59;;;;;;;4.28;1.85;;;14.80;65.90;;;;;;5038720;28;20285;-66
2023/05/13 09:00:25;;;;;;;2.67;1.85;;;14.80;66.00;;;;;;5034592;28;20025;-68
2023/05/13 09:02:51;;;;;;;1.90;1.70;;;14.80;66.10;;;;;;5036933;28;20102;-65
2023/05/13 09:05:17;;;;;;;2.97;1.77;;;14.80;66.10;;;;;;5039537;28;20029;-64
2023/05/13 09:07:43;;;;;;;1.90;1.80;;;14.70;66.30;;;;;;5038200;28;20072;-66
2023/05/13 09:10:09;;;;;;;2.15;1.73;;;14.70;66.40;;;;;;5041800;28;20029;-65
2023/05/13 09:12:45;;;;;;;1.80;1.70;;;14.70;66.60;;;;;;5038938;28;20045;-64
2023/05/13 09:15:13;;;;;;;3.28;1.90;;;14.70;66.60;;;;;;5043929;28;20041;-64
2023/05/13 09:17:44;;;;;;;2.78;2.00;;;14.70;66.80;;;;;;5040673;28;20014;-65
2023/05/13 09:20:11;;;;;;;7.13;4.50;;;14.70;67.10;;;;;;5037200;28;20022;-65
2023/05/13 09:22:52;;;;;;;2.13;1.92;;;14.70;67.00;;;;;;5039231;28;20025;-65
2023/05/13 09:25:20;;;;;;;2.70;2.03;;;14.70;66.40;;;;;;5042831;28;20123;-65
2023/05/13 09:27:47;;;;;;;2.13;1.92;;;14.70;66.80;;;;;;5034321;28;20037;-65
2023/05/13 09:30:14;;;;;;;2.25;2.03;;;14.80;66.90;;;;;;5037593;28;20021;-66
2023/05/13 09:32:41;;;;;;;2.90;2.30;;;14.70;66.90;;;;;;5020463;28;20030;-64
2023/05/13 09:35:18;;;;;;;3.55;2.15;;;14.80;67.00;;;;;;5038026;28;20068;-65
2023/05/13 09:37:45;;;;;;;3.35;2.40;;;14.80;67.10;;;;;;5036780;28;20104;-65
2023/05/13 09:40:15;;;;;;;2.28;2.08;;;14.70;66.90;;;;;;5035396;28;20453;-65
2023/05/13 09:42:45;;;;;;;3.22;2.25;;;14.80;66.80;;;;;;4938507;28;20496;-65
2023/05/13 09:45:15;;;;;;;3.13;2.53;;;14.80;67.00;;;;;;5038202;28;20021;-64
2023/05/13 09:47:42;;;;;;;2.50;2.30;;;14.70;67.00;;;;;;5022116;28;20049;-64
2023/05/13 09:50:09;;;;;;;2.90;2.28;;;14.70;66.80;;;;;;5037193;28;20037;-66
2023/05/13 09:52:36;;;;;;;3.22;2.42;;;14.70;66.50;;;;;;5038953;28;20029;-64
2023/05/13 09:55:04;;;;;;;2.38;2.17;;;14.70;66.60;;;;;;5037764;28;20034;-64
2023/05/13 09:57:31;;;;;;;4.95;2.22;;;14.70;66.80;;;;;;5037172;28;20163;-63
2023/05/13 10:00:01;;;;;;;2.45;2.25;;;14.70;67.00;;;;;;5036909;28;20032;-64
2023/05/13 10:02:27;;;;;;;3.35;2.45;;;14.80;66.80;;;;;;5037408;28;20009;-64
2023/05/13 10:04:57;;;;;;;2.45;2.25;;;14.80;67.00;;;;;;5039986;28;20392;-65
2023/05/13 10:07:24;;;;;;;3.17;2.60;;;14.80;67.10;;;;;;5038977;28;20157;-64
2023/05/13 10:09:59;;;;;;;4.82;2.70;;;14.80;66.60;;;;;;5015898;28;20030;-64
2023/05/13 10:12:25;;;;;;;2.60;2.35;;;14.80;66.80;;;;;;5033050;28;20021;-65
2023/05/13 10:14:52;;;;;;;4.28;3.65;;;14.80;67.70;;;;;;5038081;28;20032;-64
2023/05/13 10:17:22;;;;;;;2.97;2.72;;;14.90;66.90;;;;;;5031756;28;20090;-65
2023/05/13 10:19:53;;;;;;;2.78;2.50;;;14.90;66.60;;;;;;5040251;28;20022;-64
2023/05/13 10:22:23;;;;;;;3.38;2.38;;;14.90;66.70;;;;;;5037812;28;20064;-65
2023/05/13 10:24:50;;;;;;;3.28;2.53;;;14.90;66.80;;;;;;5038719;28;20034;-65
2023/05/13 10:27:17;;;;;;;3.53;2.50;;;14.90;66.80;;;;;;5036784;28;20167;-64
2023/05/13 10:29:44;;;;;;;3.60;2.83;;;14.80;66.70;;;;;;5039183;28;20029;-64
2023/05/13 10:32:10;;;;;;;3.85;2.67;;;14.90;67.00;;;;;;5037476;28;20029;-64
2023/05/13 10:34:38;;;;;;;2.90;2.60;;;14.90;67.10;;;;;;5035412;28;20665;-64
2023/05/13 10:37:16;;;;;;;2.47;2.28;;;14.90;67.10;;;;;;5018311;28;20034;-64
2023/05/13 10:39:57;;;;;;;3.33;2.40;;;14.90;67.00;;;;;;5016346;28;20167;-65
2023/05/13 10:42:42;;;;;;;4.30;2.30;;;15.00;67.10;;;;;;4957951;28;20025;-64
2023/05/13 10:45:09;;;;;;;4.80;2.45;;;15.00;67.00;;;;;;5035535;28;20025;-63
2023/05/13 10:47:36;;;;;;;3.45;2.65;;;15.00;67.10;;;;;;5036468;28;20032;-63
2023/05/13 10:50:06;;;;;;;2.78;2.58;;;15.10;67.10;;;;;;5039463;28;20025;-64
2023/05/13 10:52:47;;;;;;;2.75;2.55;;;15.10;67.10;;;;;;5039718;28;20097;-65
2023/05/13 10:55:18;;;;;;;3.03;2.78;;;15.20;66.70;;;;;;5038348;28;20030;-64
2023/05/13 10:58:02;;;;;;;2.70;2.47;;;15.20;67.40;;;;;;5039259;28;20465;-63
2023/05/13 11:00:31;;;;;;;3.27;2.73;;;15.20;66.50;;;;;;5036527;28;20044;-64
2023/05/13 11:03:08;;;;;;;2.65;2.45;;;15.20;66.90;;;;;;5038227;28;20040;-64
2023/05/13 11:05:33;;;;;;;3.03;2.70;;;15.30;67.10;;;;;;5038941;28;20053;-64
2023/05/13 11:07:59;;;;;;;2.85;2.65;;;15.40;67.10;;;;;;5039117;28;20029;-64
2023/05/13 11:10:30;;;;;;;3.78;2.65;;;15.40;66.90;;;;;;5040297;28;20052;-63
2023/05/13 11:13:21;;;;;;;3.65;3.35;;;15.50;66.80;;;;;;5036389;28;20045;-64
2023/05/13 11:15:52;;;;;;;4.00;3.05;;;15.60;65.00;;;;;;5033929;28;20133;-65
2023/05/13 11:18:19;;;;;;;3.97;3.38;;;15.60;65.50;;;;;;5035480;28;20089;-66
2023/05/13 11:20:52;;;;;;;3.72;3.30;;;15.60;65.60;;;;;;5035949;28;20017;-65
2023/05/13 11:23:21;;;;;;;5.50;3.25;;;15.60;64.70;;;;;;5033785;28;20022;-64
2023/05/13 11:26:15;;;;;;;3.95;3.40;;;15.60;64.90;;;;;;5039714;28;20444;-64
2023/05/13 11:29:04;;;;;;;4.03;3.20;;;15.50;64.70;;;;;;5036295;28;20033;-64
2023/05/13 11:31:47;;;;;;;7.05;3.10;;;15.50;64.50;;;;;;5034533;28;20648;-65
2023/05/13 11:34:15;;;;;;;4.30;3.28;;;15.50;65.00;;;;;;5040864;28;20041;-64
2023/05/13 11:36:44;;;;;;;4.40;3.28;;;15.50;65.40;;;;;;5045709;28;20377;-63
2023/05/13 11:39:12;;;;;;;4.07;3.03;;;15.50;65.50;;;;;;5035360;28;20022;-65
2023/05/13 11:41:46;;;;;;;5.38;3.30;;;15.50;65.70;;;;;;5034225;28;20488;-64
2023/05/13 11:44:14;;;;;;;4.97;2.97;;;15.60;65.70;;;;;;5035013;28;20021;-64
2023/05/13 11:46:53;;;;;;;3.25;2.90;;;15.60;65.70;;;;;;5029481;28;20047;-65
2023/05/13 11:49:45;;;;;;;2.80;2.45;;;15.60;65.30;;;;;;5036195;28;20064;-65
2023/05/13 11:52:15;;;;;;;5.55;2.85;;;15.70;64.90;;;;;;5035497;28;20021;-65
2023/05/13 11:54:49;;;;;;;3.97;2.78;;;15.70;64.40;;;;;;5036036;28;20268;-64
2023/05/13 11:57:21;;;;;;;2.70;2.40;;;15.70;64.70;;;;;;5039354;28;20041;-65
2023/05/13 11:59:56;;;;;;;3.95;2.60;;;15.70;64.90;;;;;;5019794;28;20032;-63
2023/05/13 12:02:24;;;;;;;3.28;2.60;;;15.70;65.00;;;;;;5037885;28;20080;-64
2023/05/13 12:04:51;;;;;;;2.80;2.58;;;15.70;65.20;;;;;;5033806;28;20025;-64
2023/05/13 12:07:25;;;;;;;3.25;2.75;;;15.70;65.30;;;;;;5037330;28;20028;-64
2023/05/13 12:09:52;;;;;;;2.88;2.40;;;15.70;64.80;;;;;;5032674;28;20432;-64
2023/05/13 12:12:18;;;;;;;2.40;2.20;;;15.70;65.00;;;;;;5037156;28;20033;-63
2023/05/13 12:14:48;;;;;;;3.20;2.55;;;15.60;65.20;;;;;;5034749;28;20043;-65
2023/05/13 12:17:15;;;;;;;4.38;3.25;;;15.60;65.60;;;;;;5035165;28;20329;-64
2023/05/13 12:20:06;;;;;;;3.92;2.33;;;15.60;66.20;;;;;;5039112;28;20028;-65
2023/05/13 12:22:35;;;;;;;3.45;2.00;;;15.70;66.00;;;;;;5023135;28;20034;-65
2023/05/13 12:25:35;;;;;;;3.90;2.50;;;15.70;65.80;;;;;;5032088;28;20116;-64
2023/05/13 12:28:17;;;;;;;2.65;2.13;;;15.70;64.80;;;;;;5039000;28;20018;-65
2023/05/13 12:30:52;;;;;;;8.13;2.28;;;15.70;65.00;;;;;;5038274;28;20049;-65
2023/05/13 12:33:28;;;;;;;2.55;2.10;;;15.70;65.40;;;;;;5040118;28;20076;-65
2023/05/13 12:36:34;;;;;;;2.90;2.45;;;15.60;65.70;;;;;;5039665;28;20081;-65
2023/05/13 12:39:04;;;;;;;;;;;15.60;65.70;;;;;;5043480;28;20045;-64
2023/05/13 12:41:34;;;;;;;5.68;2.83;;;15.60;65.80;;;;;;5039278;28;19913;-65
2023/05/13 12:44:20;;;;;;;2.92;2.20;;;15.60;65.70;;;;;;5041645;28;20029;-65
2023/05/13 12:46:53;;;;;;;2.88;2.58;;;15.60;65.90;;;;;;5041515;28;20026;-66
2023/05/13 12:49:19;;;;;;;4.63;3.60;;;15.60;65.70;;;;;;5041725;28;20036;-64
2023/05/13 12:51:44;;;;;;;6.00;3.17;;;15.60;66.10;;;;;;5042699;28;20049;-65